Alyeska Resort
Max's Hourly Weather Roundup
ALYESKA_MAX 8/23/2014
Click Here for Graph

        DATE  TIME   Air  Wind  Wind  Wind  BATT   Rel
                    Temp   Spd   Dir  Gust  Volt  Hum%
                      F   MPH   AVG   MPH   AVG   AVG

   8/13/2014 10:00    46     9   105    28 12.90    95
   8/13/2014 09:00    46    14    93    41 12.79    94
   8/13/2014 08:00    46    12   111    38 12.75    95
   8/13/2014 07:00    46     8   201    25 12.75    96
   8/13/2014 06:00    46     8   223    28 12.76    97
   8/13/2014 05:00    46     8   204    40 12.77    98
   8/13/2014 04:00    46    11   106    35 12.78    98
   8/13/2014 03:00    46    10   124    29 12.80    98
   8/13/2014 02:00    46    12   136    38 12.83    96
   8/13/2014 01:00    46    15   144    53 12.86    97
   8/12/2014 24:00    46    25    76    64 12.89    96
   8/12/2014 23:00    47    25    76    54 12.93    96
   8/12/2014 22:00    46    26    75    59 12.99    96
   8/12/2014 21:00    46    27    74    67 13.11    96
   8/12/2014 20:00    46    25    63    49 13.29    97
   8/12/2014 19:00    47    24    72    56 13.42    98
   8/12/2014 18:00    47    21    71    49 13.63    98
   8/12/2014 17:00    47    17    70    39 13.67    98
   8/12/2014 16:00    47    25    82    50 13.63    98
   8/12/2014 15:00    47    22    92    45 13.59    99
   8/12/2014 14:00    48    13    91    44 13.72   100
   8/12/2014 13:00    48     9    99    26 13.57    98
   8/12/2014 12:00    48     9   108    25 13.63    98
   8/12/2014 11:00    47     7   111    29 13.59    99


Click Here for Graph